createdAt,value
2016-04-27T00:00:11.857Z,90.15
2016-04-27T00:01:11.859Z,90.15
2016-04-27T00:02:11.862Z,89.58
2016-04-27T00:03:11.958Z,90.34
2016-04-27T00:04:11.915Z,90.34
2016-04-27T00:05:11.948Z,90.63
2016-04-27T00:06:12.029Z,90.72
2016-04-27T00:07:12.062Z,89.91
2016-04-27T00:08:12.097Z,89.25
2016-04-27T00:09:12.131Z,89.68
2016-04-27T00:10:12.133Z,89.87
2016-04-27T00:11:12.198Z,89.68
2016-04-27T00:12:12.186Z,90.34
2016-04-27T00:13:12.204Z,90.06
2016-04-27T00:14:12.237Z,90.53
2016-04-27T00:15:12.287Z,90.15
2016-04-27T00:16:12.289Z,90.72
2016-04-27T00:17:12.355Z,90.44
2016-04-27T00:18:12.311Z,90.53
2016-04-27T00:19:12.438Z,90.34
2016-04-27T00:20:12.426Z,90.15
2016-04-27T00:21:12.460Z,90.44
2016-04-27T00:22:13.291Z,90.44
2016-04-27T00:23:12.481Z,90.53
2016-04-27T00:24:12.546Z,90.72
2016-04-27T00:25:12.689Z,90.34
2016-04-27T00:26:12.504Z,89.77
2016-04-27T00:27:12.585Z,89.2
2016-04-27T00:28:12.619Z,89.96
2016-04-27T00:29:12.638Z,90.44
2016-04-27T00:30:12.640Z,90.25
2016-04-27T00:31:26.830Z,90.53
2016-04-27T00:32:12.708Z,90.53
2016-04-27T00:33:12.743Z,90.06
2016-04-27T00:34:12.760Z,90.2
2016-04-27T00:35:12.935Z,90.63
2016-04-27T00:36:13.156Z,89.96
2016-04-27T00:37:13.159Z,89.72
2016-04-27T00:38:12.881Z,89.91
2016-04-27T00:39:12.898Z,89.72
2016-04-27T00:40:12.873Z,90.01
2016-04-27T00:41:12.957Z,89.63
2016-04-27T00:42:12.994Z,89.06
2016-04-27T00:43:12.986Z,88.96
2016-04-27T00:44:13.033Z,88.87
2016-04-27T00:45:12.887Z,90.01
2016-04-27T00:46:13.062Z,90.01
2016-04-27T00:47:13.111Z,90.15
2016-04-27T00:48:13.145Z,90.06
2016-04-27T00:49:24.929Z,90.2
2016-04-27T00:50:13.307Z,90.63
2016-04-27T00:51:13.262Z,90.25
2016-04-27T00:52:13.234Z,89.87
2016-04-27T00:53:13.392Z,90.1
2016-04-27T00:54:13.269Z,90.1
2016-04-27T00:55:13.414Z,90.2
2016-04-27T00:56:13.354Z,89.72
2016-04-27T00:57:13.403Z,90.01
2016-04-27T00:58:13.483Z,88.87
2016-04-27T00:59:13.440Z,89.06
2016-04-27T01:00:13.442Z,89.44
2016-04-27T01:01:13.477Z,89.82
2016-04-27T01:02:13.495Z,89.82
2016-04-27T01:03:13.529Z,89.25
2016-04-27T01:04:13.688Z,89.06
2016-04-27T01:05:13.721Z,88.96
2016-04-27T01:06:13.522Z,89.91
2016-04-27T01:07:13.696Z,89.82
2016-04-27T01:08:13.713Z,89.72
2016-04-27T01:09:13.749Z,90.2
2016-04-27T01:10:13.876Z,90.58
2016-04-27T01:11:13.768Z,90.34
2016-04-27T01:12:13.771Z,89.63
2016-04-27T01:13:13.884Z,90.39
2016-04-27T01:14:13.824Z,90.15
2016-04-27T01:15:13.842Z,89.82
2016-04-27T01:16:14.189Z,90.2
2016-04-27T01:17:13.926Z,90.1
2016-04-27T01:18:13.944Z,90.1
2016-04-27T01:19:15.197Z,89.63
2016-04-27T01:20:14.012Z,89.91
2016-04-27T01:21:13.952Z,89.25
2016-04-27T01:22:14.101Z,89.82
2016-04-27T01:23:14.168Z,89.06
2016-04-27T01:24:14.046Z,89.44
2016-04-27T01:25:14.080Z,88.96
2016-04-27T01:26:14.364Z,89.91
2016-04-27T01:27:14.163Z,89.63
2016-04-27T01:28:14.182Z,89.72
2016-04-27T01:29:14.185Z,88.78
2016-04-27T01:30:14.203Z,89.91
2016-04-27T01:31:14.315Z,89.63
2016-04-27T01:32:14.318Z,88.68
2016-04-27T01:33:14.352Z,88.11
2016-04-27T01:34:14.370Z,88.78
2016-04-27T01:35:14.388Z,89.06
2016-04-27T01:36:14.188Z,89.82
2016-04-27T01:37:14.503Z,90.06
2016-04-27T01:38:14.662Z,90.1
2016-04-27T01:39:14.493Z,90.34
2016-04-27T01:40:14.557Z,90.06
2016-04-27T01:41:14.763Z,90.2
2016-04-27T01:42:14.657Z,89.96
2016-04-27T01:43:14.550Z,89.96
2016-04-27T01:44:14.646Z,90.15
2016-04-27T01:45:14.837Z,90.25
2016-04-27T01:46:14.668Z,90.06
2016-04-27T01:47:14.748Z,90.06
2016-04-27T01:48:14.751Z,89.96
2016-04-27T01:49:14.817Z,90.44
2016-04-27T01:50:14.961Z,89.87
2016-04-27T01:51:15.073Z,90.53
2016-04-27T01:52:14.888Z,90.15
2016-04-27T01:53:15.094Z,89.58
2016-04-27T01:54:14.831Z,89.58
2016-04-27T01:55:14.911Z,88.73
2016-04-27T01:56:14.946Z,90.15
2016-04-27T01:57:14.979Z,90.63
2016-04-27T01:58:14.935Z,90.72
2016-04-27T01:59:15.094Z,90.53
2016-04-27T02:00:15.097Z,90.91
2016-04-27T02:01:15.022Z,90.44
2016-04-27T02:02:15.150Z,89.58
2016-04-27T02:03:15.417Z,90.44
2016-04-27T02:04:15.170Z,90.44
2016-04-27T02:05:15.314Z,90.63
2016-04-27T02:06:15.161Z,91.1
2016-04-27T02:07:15.241Z,90.91
2016-04-27T02:08:15.603Z,90.81
2016-04-27T02:09:15.309Z,90.91
2016-04-27T02:10:15.312Z,90.81
2016-04-27T02:11:15.330Z,91.19
2016-04-27T02:12:15.379Z,90.72
2016-04-27T02:13:15.397Z,90.91
2016-04-27T02:14:15.432Z,90.53
2016-04-27T02:15:15.480Z,90.44
2016-04-27T02:16:15.515Z,90.63
2016-04-27T02:17:15.502Z,90.81
2016-04-27T02:18:15.552Z,91
2016-04-27T02:19:15.570Z,91.19
2016-04-27T02:20:15.573Z,90.72
2016-04-27T02:21:15.622Z,90.53
2016-04-27T02:22:16.938Z,90.91
2016-04-27T02:23:15.721Z,91.67
2016-04-27T02:24:15.724Z,91.19
2016-04-27T02:25:15.837Z,90.91
2016-04-27T02:26:15.949Z,91.19
2016-04-27T02:27:15.825Z,90.72
2016-04-27T02:28:15.828Z,90.72
2016-04-27T02:29:15.816Z,90.34
2016-04-27T02:30:15.787Z,90.34
2016-04-27T02:31:15.867Z,90.81
2016-04-27T02:32:15.901Z,90.06
2016-04-27T02:33:15.920Z,90.15
2016-04-27T02:34:15.939Z,90.34
2016-04-27T02:35:15.988Z,90.63
2016-04-27T02:36:15.882Z,90.72
2016-04-27T02:37:16.258Z,90.44
2016-04-27T02:38:16.106Z,91.1
2016-04-27T02:39:16.092Z,91.38
2016-04-27T02:40:16.127Z,90.91
2016-04-27T02:41:16.020Z,90.44
2016-04-27T02:42:16.155Z,90.53
2016-04-27T02:43:16.293Z,90.72
2016-04-27T02:44:16.306Z,90.15
2016-04-27T02:45:16.383Z,90.81
2016-04-27T02:46:16.443Z,90.72
2016-04-27T02:47:16.513Z,90.72
2016-04-27T02:48:16.594Z,90.81
2016-04-27T02:49:16.581Z,90.34
2016-04-27T02:50:16.631Z,90.67
2016-04-27T02:51:17.555Z,90.15
2016-04-27T02:52:16.852Z,90.15
2016-04-27T02:53:17.158Z,91
2016-04-27T02:54:16.790Z,91.1
2016-04-27T02:55:16.830Z,90.81
2016-04-27T02:56:16.806Z,90.91
2016-04-27T02:57:16.876Z,90.48
2016-04-27T02:58:17.083Z,90.48
2016-04-27T02:59:16.943Z,91.1
2016-04-27T03:00:17.121Z,90.58
2016-04-27T03:01:16.984Z,90.58
2016-04-27T03:02:17.019Z,90.77
2016-04-27T03:03:17.165Z,90.77
2016-04-27T03:04:17.199Z,91.57
2016-04-27T03:05:17.266Z,91.71
2016-04-27T03:06:18.315Z,92.09
2016-04-27T03:07:17.241Z,91.62
2016-04-27T03:08:17.244Z,91.81
2016-04-27T03:09:17.232Z,91.62
2016-04-27T03:10:17.345Z,91.57
2016-04-27T03:11:17.285Z,91.86
2016-04-27T03:12:17.303Z,91.95
2016-04-27T03:13:17.526Z,91.67
2016-04-27T03:14:17.357Z,91.76
2016-04-27T03:15:17.359Z,92
2016-04-27T03:16:17.392Z,92.09
2016-04-27T03:17:17.427Z,91.62
2016-04-27T03:18:17.445Z,91.62
2016-04-27T03:19:17.463Z,91.71
2016-04-27T03:20:17.435Z,91.43
2016-04-27T03:21:17.531Z,92.38
2016-04-27T03:22:17.550Z,92.66
2016-04-27T03:23:17.583Z,92
2016-04-27T03:24:17.617Z,91.71
2016-04-27T03:25:17.652Z,91.81
2016-04-27T03:26:17.655Z,91.43
2016-04-27T03:27:17.688Z,92.28
2016-04-27T03:28:17.768Z,92.47
2016-04-27T03:29:17.741Z,92.28
2016-04-27T03:30:17.790Z,92.28
2016-04-27T03:31:17.793Z,92.66
2016-04-27T03:32:17.843Z,92.38
2016-04-27T03:33:17.845Z,92.38
2016-04-27T03:34:17.863Z,92.47
2016-04-27T03:35:17.913Z,92.57
2016-04-27T03:36:17.759Z,92.38
2016-04-27T03:37:17.809Z,92.66
2016-04-27T03:38:18.327Z,93.04
2016-04-27T03:39:18.064Z,92.57
2016-04-27T03:40:18.129Z,92.09
2016-04-27T03:41:18.085Z,91.81
2016-04-27T03:42:18.103Z,91.81
2016-04-27T03:43:18.153Z,91.43
2016-04-27T03:44:18.171Z,91.14
2016-04-27T03:45:18.173Z,91.62
2016-04-27T03:46:18.239Z,91.24
2016-04-27T03:47:18.211Z,90.86
2016-04-27T03:48:18.245Z,91.52
2016-04-27T03:49:18.263Z,91.52
2016-04-27T03:50:18.297Z,91.9
2016-04-27T03:51:18.455Z,92.57
2016-04-27T03:52:18.225Z,91.9
2016-04-27T03:53:18.649Z,92.28
2016-04-27T03:54:18.417Z,92.57
2016-04-27T03:55:18.498Z,92.94
2016-04-27T03:56:18.485Z,92.85
2016-04-27T03:57:18.738Z,92.94
2016-04-27T03:58:18.521Z,92.94
2016-04-27T03:59:18.571Z,92.47
2016-04-27T04:00:18.558Z,92.57
2016-04-27T04:01:18.607Z,92.19
2016-04-27T04:02:18.719Z,92.57
2016-04-27T04:03:18.660Z,92.66
2016-04-27T04:04:18.694Z,92.57
2016-04-27T04:05:18.697Z,91.62
2016-04-27T04:06:18.575Z,90.95
2016-04-27T04:07:18.655Z,91.14
2016-04-27T04:08:18.783Z,91.43
2016-04-27T04:09:18.833Z,91.52
2016-04-27T04:10:18.883Z,91.43
2016-04-27T04:11:18.916Z,92.09
2016-04-27T04:12:18.920Z,91.24
2016-04-27T04:13:18.922Z,91.52
2016-04-27T04:14:18.940Z,90.95
2016-04-27T04:15:19.021Z,90.86
2016-04-27T04:16:19.258Z,91.05
2016-04-27T04:17:19.042Z,91.81
2016-04-27T04:18:19.155Z,91.43
2016-04-27T04:19:19.173Z,90.77
2016-04-27T04:20:19.144Z,90.67
2016-04-27T04:21:19.163Z,90.48
2016-04-27T04:22:19.185Z,90.2
2016-04-27T04:23:19.266Z,90.34
2016-04-27T04:24:19.424Z,90.29
2016-04-27T04:25:19.364Z,90.34
2016-04-27T04:26:19.335Z,90.58
2016-04-27T04:27:19.495Z,90.39
2016-04-27T04:28:19.326Z,90.86
2016-04-27T04:29:19.469Z,90.67
2016-04-27T04:30:19.644Z,90.39
2016-04-27T04:31:19.397Z,90.86
2016-04-27T04:32:19.493Z,90.67
2016-04-27T04:33:19.699Z,90.95
2016-04-27T04:34:19.482Z,90.39
2016-04-27T04:35:19.595Z,90.58
2016-04-27T04:36:19.565Z,90.48
2016-04-27T04:37:19.959Z,90.67
2016-04-27T04:38:19.634Z,90.58
2016-04-27T04:39:19.621Z,90.95
2016-04-27T04:40:19.639Z,90.77
2016-04-27T04:41:19.689Z,90.77
2016-04-27T04:42:19.817Z,90.95
2016-04-27T04:43:19.725Z,90.86
2016-04-27T04:44:19.870Z,90.86
2016-04-27T04:45:19.809Z,91.05
2016-04-27T04:46:19.828Z,91.71
2016-04-27T04:47:19.830Z,91.43
2016-04-27T04:48:19.926Z,90.39
2016-04-27T04:49:19.961Z,90.58
2016-04-27T04:50:19.916Z,90.77
2016-04-27T04:51:19.966Z,90.95
2016-04-27T04:52:19.984Z,90.77
2016-04-27T04:53:20.018Z,90.86
2016-04-27T04:54:20.162Z,90.48
2016-04-27T04:55:20.242Z,90.48
2016-04-27T04:56:21.401Z,90.39
2016-04-27T04:57:20.154Z,90.95
2016-04-27T04:58:20.172Z,90.48
2016-04-27T04:59:20.205Z,90.58
2016-04-27T05:00:20.271Z,91.33
2016-04-27T05:01:20.291Z,91.62
2016-04-27T05:02:20.246Z,91.9
2016-04-27T05:03:20.264Z,91.24
2016-04-27T05:04:20.298Z,91.33
2016-04-27T05:05:20.347Z,91.33
2016-04-27T05:06:20.382Z,91.71
2016-04-27T05:07:20.368Z,92.28
2016-04-27T05:08:20.402Z,91.24
2016-04-27T05:09:20.436Z,90.81
2016-04-27T05:10:20.517Z,90.62
2016-04-27T05:11:20.520Z,90.48
2016-04-27T05:12:20.538Z,90.86
2016-04-27T05:13:20.526Z,91.52
2016-04-27T05:14:20.590Z,91.57
2016-04-27T05:15:20.906Z,91.43
2016-04-27T05:16:20.626Z,91.66
2016-04-27T05:17:20.629Z,91.85
2016-04-27T05:18:20.663Z,91.57
2016-04-27T05:19:20.713Z,92.23
2016-04-27T05:20:20.762Z,92.14
2016-04-27T05:21:20.781Z,91.47
2016-04-27T05:22:20.878Z,91.57
2016-04-27T05:23:20.802Z,91.95
2016-04-27T05:24:20.883Z,92.04
2016-04-27T05:25:20.854Z,91.47
2016-04-27T05:26:20.903Z,91.47
2016-04-27T05:27:21.000Z,91.66
2016-04-27T05:28:20.940Z,91
2016-04-27T05:29:20.975Z,90.81
2016-04-27T05:30:20.993Z,90.81
2016-04-27T05:31:21.058Z,90.81
2016-04-27T05:32:21.045Z,90.62
2016-04-27T05:33:21.094Z,90.62
2016-04-27T05:34:21.097Z,90.72
2016-04-27T05:35:21.131Z,90.62
2016-04-27T05:36:21.227Z,91.19
2016-04-27T05:37:21.324Z,90.81
2016-04-27T05:38:21.374Z,91.19
2016-04-27T05:39:21.298Z,91
2016-04-27T05:40:21.316Z,91.66
2016-04-27T05:41:21.335Z,91.38
2016-04-27T05:42:21.337Z,91.85
2016-04-27T05:43:21.340Z,91.66
2016-04-27T05:44:21.405Z,91.09
2016-04-27T05:45:21.454Z,91.66
2016-04-27T05:46:21.520Z,91.85
2016-04-27T05:47:21.476Z,91
2016-04-27T05:48:21.526Z,90.72
2016-04-27T05:49:21.669Z,91.09
2016-04-27T05:50:21.687Z,91.38
2016-04-27T05:51:21.877Z,91.66
2016-04-27T05:52:21.520Z,91.76
2016-04-27T05:53:21.648Z,91.47
2016-04-27T05:54:21.792Z,91.66
2016-04-27T05:55:21.731Z,90.34
2016-04-27T05:56:21.688Z,91
2016-04-27T05:57:21.737Z,91
2016-04-27T05:58:21.756Z,90.72
2016-04-27T05:59:21.774Z,90.72
2016-04-27T06:00:21.808Z,91.09
2016-04-27T06:01:22.044Z,91
2016-04-27T06:02:21.907Z,90.72
2016-04-27T06:03:22.066Z,91.57
2016-04-27T06:04:22.022Z,90.81
2016-04-27T06:05:21.899Z,91
2016-04-27T06:06:22.074Z,90.81
2016-04-27T06:07:21.920Z,90.62
2016-04-27T06:08:22.313Z,90.53
2016-04-27T06:09:22.191Z,90.24
2016-04-27T06:10:22.100Z,90.24
2016-04-27T06:11:22.369Z,90.81
2016-04-27T06:12:22.215Z,90.91
2016-04-27T06:13:22.171Z,91.66
2016-04-27T06:14:22.440Z,90.91
2016-04-27T06:15:22.410Z,91.19
2016-04-27T06:16:22.304Z,91.19
2016-04-27T06:17:22.619Z,90.72
2016-04-27T06:18:22.512Z,90.24
2016-04-27T06:19:22.375Z,90.24
2016-04-27T06:20:22.345Z,90.81
2016-04-27T06:21:22.427Z,90.43
2016-04-27T06:22:22.383Z,90.34
2016-04-27T06:23:22.464Z,89.67
2016-04-27T06:24:22.467Z,90.05
2016-04-27T06:25:22.500Z,90.1
2016-04-27T06:26:22.550Z,88.92
2016-04-27T06:27:22.599Z,89.29
2016-04-27T06:28:22.633Z,89.29
2016-04-27T06:29:22.698Z,89.29
2016-04-27T06:30:22.622Z,89.25
2016-04-27T06:31:22.688Z,89.77
2016-04-27T06:32:22.722Z,89.67
2016-04-27T06:33:22.771Z,89.62
2016-04-27T06:34:22.790Z,90.1
2016-04-27T06:35:22.824Z,90.1
2016-04-27T06:36:22.810Z,90.67
2016-04-27T06:37:22.829Z,90.05
2016-04-27T06:38:22.784Z,90.53
2016-04-27T06:39:22.913Z,90.91
2016-04-27T06:40:22.915Z,91.66
2016-04-27T06:41:22.996Z,91.47
2016-04-27T06:42:22.983Z,90.91
2016-04-27T06:43:23.017Z,90.29
2016-04-27T06:44:23.051Z,90.86
2016-04-27T06:45:23.070Z,90.19
2016-04-27T06:46:23.087Z,90.48
2016-04-27T06:47:23.371Z,90.76
2016-04-27T06:48:23.156Z,90.34
2016-04-27T06:49:23.190Z,90.24
2016-04-27T06:50:23.380Z,91.24
2016-04-27T06:51:23.242Z,91.05
2016-04-27T06:52:23.228Z,90.29
2016-04-27T06:53:23.279Z,90.57
2016-04-27T06:54:23.375Z,90.1
2016-04-27T06:55:23.393Z,90.1
2016-04-27T06:56:23.380Z,90.57
2016-04-27T06:57:23.445Z,91.24
2016-04-27T06:58:23.417Z,91.24
2016-04-27T06:59:23.389Z,91.42
2016-04-27T07:02:23.428Z,90.67
2016-04-27T07:03:23.430Z,90.29
2016-04-27T07:04:23.449Z,90.67
2016-04-27T07:05:23.498Z,90.1
2016-04-27T07:06:23.501Z,89.91
2016-04-27T13:55:24.810Z,50.9
2016-04-27T13:56:24.860Z,49.66
2016-04-27T13:57:24.878Z,48.99
2016-04-27T13:58:24.927Z,48.52
2016-04-27T13:59:24.962Z,47.75
2016-04-27T14:00:24.979Z,47.63
2016-04-27T14:01:25.029Z,48.71
2016-04-27T14:02:25.047Z,50.9
2016-04-27T14:03:25.081Z,54.04
2016-04-27T14:04:25.116Z,56.68
2016-04-27T14:05:25.149Z,57.07
2016-04-27T14:06:25.183Z,57.99
2016-04-27T14:07:25.217Z,58.94
2016-04-27T14:08:25.861Z,57.04
2016-04-27T14:09:26.254Z,56.59
2016-04-27T14:10:25.319Z,56.4
2016-04-27T14:11:25.353Z,55.83
2016-04-27T14:12:25.418Z,54.3
2016-04-27T14:13:25.421Z,54.24
2016-04-27T14:14:25.455Z,54.61
2016-04-27T14:15:25.505Z,52.64
2016-04-27T14:16:25.522Z,50.35
2016-04-27T14:17:25.557Z,49.71
2016-04-27T14:18:25.606Z,48.85
2016-04-27T14:19:25.626Z,47.52
2016-04-27T14:20:25.660Z,46.11
2016-04-27T14:21:25.709Z,45.46
2016-04-27T14:22:25.742Z,45.75
2016-04-27T14:23:27.000Z,47.18
2016-04-27T14:24:26.269Z,48.3
2016-04-27T14:25:25.849Z,47.37
2016-04-27T14:26:25.884Z,46.61
2016-04-27T14:27:25.949Z,47.66
2016-04-27T14:28:27.499Z,49.16
2016-04-27T14:29:26.017Z,50.67
2016-04-27T14:30:26.035Z,51.31
2016-04-27T14:31:26.069Z,51.95
2016-04-27T14:32:26.118Z,53.16
2016-04-27T14:33:26.152Z,52.97
2016-04-27T14:34:26.186Z,53.06
2016-04-27T14:35:26.220Z,53.38
2016-04-27T14:36:26.255Z,52.52
2016-04-27T14:37:26.304Z,52.14
2016-04-27T14:38:27.182Z,51.66
2016-04-27T14:39:28.121Z,52.23
2016-04-27T14:40:26.421Z,52.42
2016-04-27T14:41:26.439Z,52.33
2016-04-27T14:42:26.474Z,52.14
2016-04-27T14:43:27.773Z,52.78
2016-04-27T14:44:26.557Z,53.35
2016-04-27T14:45:26.576Z,52.97
2016-04-27T14:46:26.609Z,52.97
2016-04-27T14:47:26.659Z,53.25
2016-04-27T14:48:27.428Z,53.44
2016-04-27T14:49:26.742Z,53.06
2016-04-27T14:50:26.761Z,53.16
2016-04-27T14:51:26.779Z,52.97
2016-04-27T14:52:26.829Z,54.68
2016-04-27T14:53:32.894Z,54.3
2016-04-27T14:54:26.739Z,54.21
2016-04-27T14:55:26.915Z,54.85
2016-04-27T14:56:26.964Z,54.94
2016-04-27T14:57:26.998Z,55.22
2016-04-27T14:58:29.158Z,55.7
2016-04-27T14:59:27.066Z,54.94
2016-04-27T15:00:26.944Z,54.85
2016-04-27T15:01:27.133Z,55.13
2016-04-27T15:02:27.168Z,54.75
2016-04-27T15:03:27.202Z,54.66
2016-04-27T15:04:27.236Z,54.85
2016-04-27T15:05:27.269Z,54.27
2016-04-27T15:06:27.304Z,54.18
2016-04-27T15:07:27.338Z,54.37
2016-04-27T15:08:27.215Z,54.85
2016-04-27T15:09:27.405Z,54.56
2016-04-27T15:10:27.454Z,55.13
2016-04-27T15:11:27.473Z,54.47
2016-04-27T15:12:27.507Z,54.39
2016-04-27T15:13:27.557Z,53.13
2016-04-27T15:14:27.575Z,51.61
2016-04-27T15:15:27.609Z,50.09
2016-04-27T15:16:27.628Z,50.66
2016-04-27T15:17:27.662Z,50.56
2016-04-27T15:18:27.695Z,51.32
2016-04-27T15:19:27.573Z,51.61
2016-04-27T15:20:27.764Z,52.56
2016-04-27T15:21:27.812Z,52.92
2016-04-27T15:22:27.832Z,52.92
2016-04-27T15:23:27.866Z,53.96
2016-04-27T15:24:29.571Z,54.35
2016-04-27T15:25:27.934Z,55.2
2016-04-27T15:26:27.967Z,55.29
2016-04-27T15:27:28.018Z,55.58
2016-04-27T15:28:28.037Z,56.44
2016-04-27T15:29:28.070Z,58.59
2016-04-27T15:30:28.087Z,58.5
2016-04-27T15:31:27.965Z,59.07
2016-04-27T15:32:28.156Z,59.74
2016-04-27T15:33:28.189Z,61.9
2016-04-27T15:34:28.223Z,62.08
2016-04-27T15:35:28.258Z,61.99
2016-04-27T15:36:28.292Z,62.56
2016-04-27T15:37:28.310Z,62.85
2016-04-27T15:38:28.344Z,62.56
2016-04-27T15:39:28.565Z,63.23
2016-04-27T15:40:28.411Z,63.23
2016-04-27T15:41:28.446Z,62.37
2016-04-27T15:42:28.480Z,61.61
2016-04-27T15:43:28.513Z,61.61
2016-04-27T15:44:28.547Z,62.46
2016-04-27T15:45:28.566Z,62.56
2016-04-27T15:46:28.599Z,62.27
2016-04-27T15:47:28.633Z,62.75
2016-04-27T15:48:28.668Z,62.18
2016-04-27T15:49:28.702Z,61.9
2016-04-27T15:50:28.736Z,62.56
2016-04-27T15:51:28.754Z,61.45
2016-04-27T15:52:28.804Z,60.88
2016-04-27T15:53:28.821Z,61.61
2016-04-27T15:54:28.871Z,61.61
2016-04-27T15:55:28.889Z,61.8
2016-04-27T15:56:28.924Z,61.61
2016-04-27T15:57:28.958Z,61.61
2016-04-27T15:58:28.992Z,61.71
2016-04-27T15:59:29.009Z,60.47
2016-04-27T16:00:29.043Z,60.57
2016-04-27T16:01:29.078Z,60.57
2016-04-27T16:02:29.128Z,59.9
2016-04-27T16:03:29.146Z,59.8
2016-04-27T16:04:29.179Z,59.99
2016-04-27T16:05:29.198Z,60.47
2016-04-27T16:06:29.247Z,60.94
2016-04-27T16:07:29.266Z,60.44
2016-04-27T16:08:29.300Z,61.39
2016-04-27T16:09:30.567Z,62.34
2016-04-27T16:10:29.367Z,63.2
2016-04-27T16:11:29.402Z,63.39
2016-04-27T16:12:29.420Z,63.01
2016-04-27T16:13:29.485Z,63.29
2016-04-27T16:14:29.488Z,63.67
2016-04-27T16:15:29.505Z,63.39
2016-04-27T16:16:29.555Z,63.48
2016-04-27T16:17:29.589Z,64.05
2016-04-27T16:18:29.608Z,64.62
2016-04-27T16:19:29.657Z,65.09
2016-04-27T16:20:29.676Z,65.06
2016-04-27T16:21:29.694Z,65.19
2016-04-27T16:22:29.743Z,64.81
2016-04-27T16:23:29.777Z,65.57
2016-04-27T16:24:31.014Z,66.3
2016-04-27T16:25:29.815Z,67
2016-04-27T16:26:29.849Z,66.14
2016-04-27T16:27:29.898Z,66.71
2016-04-27T16:28:29.916Z,66.14
2016-04-27T16:29:29.950Z,66.24
2016-04-27T16:30:29.984Z,66.14
2016-04-27T16:31:30.018Z,67
2016-04-27T16:32:30.036Z,67.57
2016-04-27T16:33:30.070Z,67.85
2016-04-27T16:34:30.104Z,68.04
2016-04-27T16:35:30.138Z,67.57
2016-04-27T16:36:30.156Z,66.9
2016-04-27T16:37:30.190Z,67.66
2016-04-27T16:38:30.225Z,68.23
2016-04-27T16:39:30.555Z,68.42
2016-04-27T16:40:30.292Z,68.8
2016-04-27T16:41:30.311Z,68.13
2016-04-27T16:42:30.344Z,68.61
2016-04-27T16:43:30.378Z,68.42
2016-04-27T16:44:30.428Z,69.46
2016-04-27T16:45:30.446Z,68.9
2016-04-27T16:46:30.481Z,68.61
2016-04-27T16:47:30.499Z,68.52
2016-04-27T16:48:30.392Z,68.61
2016-04-27T16:49:30.566Z,68.52
2016-04-27T16:50:30.600Z,68.42
2016-04-27T16:51:30.634Z,68.52
2016-04-27T16:52:30.668Z,67.94
2016-04-27T16:53:30.702Z,67.66
2016-04-27T16:54:33.002Z,67.66
2016-04-27T16:55:30.754Z,66.9
2016-04-27T16:56:30.773Z,67.66
2016-04-27T16:57:30.822Z,66.24
2016-04-27T16:58:30.856Z,64.9
2016-04-27T16:59:30.890Z,65.19
2016-04-27T17:00:30.908Z,65
2016-04-27T17:01:30.943Z,65
2016-04-27T17:02:30.976Z,65.09
2016-04-27T17:03:31.010Z,64.72
2016-04-27T17:04:31.028Z,64.81
2016-04-27T17:05:31.062Z,65.19
2016-04-27T17:06:31.112Z,64.81
2016-04-27T17:07:31.114Z,65.19
2016-04-27T17:08:31.148Z,64.9
2016-04-27T17:09:32.026Z,64.9
2016-04-27T17:10:31.216Z,65.38
2016-04-27T17:11:31.251Z,65.38
2016-04-27T17:12:31.284Z,66.05
2016-04-27T17:13:31.303Z,66.24
2016-04-27T17:14:31.337Z,65.95
2016-04-27T17:15:31.355Z,66.05
2016-04-27T17:16:31.405Z,66.05
2016-04-27T17:17:31.423Z,66.24
2016-04-27T17:18:31.457Z,65.47
2016-04-27T17:19:31.491Z,65.95
2016-04-27T17:20:31.508Z,65.57
2016-04-27T17:21:31.543Z,65.95
2016-04-27T17:22:31.593Z,65.95
2016-04-27T17:23:31.610Z,66.05
2016-04-27T17:24:31.519Z,66.24
2016-04-27T17:25:31.679Z,65.57
2016-04-27T17:26:31.697Z,65.38
2016-04-27T17:27:31.731Z,65.57
2016-04-27T17:28:31.765Z,66.05
2016-04-27T17:29:31.799Z,66.14
2016-04-27T17:30:31.832Z,65.28
2016-04-27T17:31:31.867Z,65.67
2016-04-27T17:32:31.885Z,66.24
2016-04-27T17:33:31.919Z,65.57
2016-04-27T17:34:31.953Z,66.52
2016-04-27T17:35:31.971Z,66.24
2016-04-27T17:36:32.006Z,66.14
2016-04-27T17:37:32.040Z,66.24
2016-04-27T17:38:32.073Z,66.33
2016-04-27T17:39:31.998Z,66.61
2016-04-27T17:40:32.141Z,66.61
2016-04-27T17:41:32.175Z,65.95
2016-04-27T17:42:32.193Z,66.14
2016-04-27T17:43:32.212Z,66.05
2016-04-27T17:44:32.261Z,66.42
2016-04-27T17:45:32.295Z,66.58
2016-04-27T17:46:32.313Z,66.61
2016-04-27T17:47:32.347Z,67.09
2016-04-27T17:48:32.366Z,67
2016-04-27T17:49:32.400Z,67.44
2016-04-27T17:50:32.434Z,68.1
2016-04-27T17:51:32.467Z,68.77
2016-04-27T17:52:32.486Z,69.43
2016-04-27T17:53:32.519Z,69.91
2016-04-27T17:54:32.913Z,69.71
2016-04-27T17:55:32.588Z,70.76
2016-04-27T17:56:32.621Z,71.43
2016-04-27T17:57:32.640Z,72
2016-04-27T17:58:32.674Z,73.42
2016-04-27T17:59:32.708Z,74.08
2016-04-27T18:00:32.788Z,74.94
2016-04-27T18:01:32.760Z,75.47
2016-04-27T18:02:32.793Z,75.28
2016-04-27T18:03:32.828Z,75.95
2016-04-27T18:04:32.862Z,76.04
2016-04-27T18:05:32.880Z,76.52
2016-04-27T18:06:32.915Z,76.99
2016-04-27T18:07:32.948Z,77.09
2016-04-27T18:08:32.982Z,76.32
2016-04-27T18:09:33.016Z,77.37
2016-04-27T18:10:33.035Z,77.47
2016-04-27T18:11:33.068Z,77.09
2016-04-27T18:12:33.102Z,77.66
2016-04-27T18:13:33.137Z,77.37
2016-04-27T18:14:33.154Z,77.66
2016-04-27T18:15:33.188Z,77.56
2016-04-27T18:16:33.207Z,76.71
2016-04-27T18:17:33.273Z,77.75
2016-04-27T18:18:33.289Z,78.8
2016-04-27T18:19:33.309Z,77.94
2016-04-27T18:20:33.342Z,78.89
2016-04-27T18:21:33.361Z,78.7
2016-04-27T18:22:33.394Z,78.85
2016-04-27T18:23:33.413Z,78.7
2016-04-27T18:24:35.119Z,78.13
2016-04-27T18:25:33.480Z,78.8
2016-04-27T18:26:33.499Z,78.99
2016-04-27T18:27:33.549Z,78.7
2016-04-27T18:28:33.552Z,78.8
2016-04-27T18:29:33.602Z,78.99
2016-04-27T18:30:33.619Z,78.61
2016-04-27T18:31:33.654Z,78.61
2016-04-27T18:32:33.672Z,78.7
2016-04-27T18:33:33.705Z,78.89
2016-04-27T18:34:33.740Z,78.7
2016-04-27T18:35:33.774Z,79.08
2016-04-27T18:36:33.823Z,79.84
2016-04-27T18:37:33.826Z,79.36
2016-04-27T18:38:33.859Z,78.8
2016-04-27T18:39:33.893Z,78.8
2016-04-27T18:40:33.912Z,78.89
2016-04-27T18:41:33.946Z,78.8
2016-04-27T18:42:33.980Z,79.74
2016-04-27T18:43:34.018Z,80.32
2016-04-27T18:44:34.036Z,79.46
2016-04-27T18:45:34.070Z,79.14
2016-04-27T18:46:34.088Z,79.94
2016-04-27T18:47:34.122Z,80.27
2016-04-27T18:48:34.157Z,80.08
2016-04-27T18:49:34.190Z,80.56
2016-04-27T18:50:34.240Z,80.65
2016-04-27T18:51:34.243Z,80.56
2016-04-27T18:52:34.261Z,80.27
2016-04-27T18:53:34.296Z,80.37
2016-04-27T18:54:34.751Z,81.04
2016-04-27T18:55:34.519Z,81.13
2016-04-27T18:56:34.381Z,81.13
2016-04-27T18:57:34.415Z,81.6
2016-04-27T18:58:34.449Z,81.51
2016-04-27T18:59:34.482Z,81.23
2016-04-27T19:00:34.501Z,81.13
2016-04-27T19:01:34.534Z,81.6
2016-04-27T19:02:34.553Z,81.7
2016-04-27T19:03:34.587Z,81.23
2016-04-27T19:04:34.621Z,80.94
2016-04-27T19:05:34.640Z,80.75
2016-04-27T19:06:34.673Z,81.23
2016-04-27T19:07:34.708Z,82.08
2016-04-27T19:08:34.742Z,81.51
2016-04-27T19:09:35.275Z,81.32
2016-04-27T19:10:34.794Z,81.13
2016-04-27T19:11:34.812Z,81.79
2016-04-27T19:12:34.846Z,81.98
2016-04-27T19:13:34.880Z,81.23
2016-04-27T19:14:34.914Z,81.7
2016-04-27T19:15:34.933Z,81.7
2016-04-27T19:16:34.966Z,82.08
2016-04-27T19:17:35.000Z,81.6
2016-04-27T19:18:35.018Z,81.6
2016-04-27T19:19:35.036Z,81.32
2016-04-27T19:20:35.086Z,81.32
2016-04-27T19:21:35.105Z,81.79
2016-04-27T19:22:35.130Z,81.88
2016-04-27T19:23:35.165Z,81.7
2016-04-27T19:24:35.198Z,81.94
2016-04-27T19:25:35.232Z,81.98
2016-04-27T19:26:35.251Z,81.88
2016-04-27T19:27:35.269Z,81.88
2016-04-27T19:28:35.303Z,81.98
2016-04-27T19:29:35.353Z,82.17
2016-04-27T19:30:35.370Z,81.88
2016-04-27T19:31:35.390Z,81.41
2016-04-27T19:32:35.423Z,81.7
2016-04-27T19:33:35.457Z,81.41
2016-04-27T19:34:35.491Z,80.65
2016-04-27T19:35:35.509Z,81.13
2016-04-27T19:36:35.542Z,80.37
2016-04-27T19:37:35.578Z,80.56
2016-04-27T19:38:35.595Z,80.65
2016-04-27T19:39:35.645Z,79.99
2016-04-27T19:40:36.366Z,80.27
2016-04-27T19:41:35.698Z,80.18
2016-04-27T19:42:35.716Z,79.99
2016-04-27T19:43:35.734Z,79.99
2016-04-27T19:44:35.768Z,79.61
2016-04-27T19:45:35.802Z,79.9
2016-04-27T19:46:35.819Z,79.8